createdAt,value
2023-03-07T00:00:51.537Z,4.8
2023-03-07T00:01:51.533Z,4.7
2023-03-07T00:02:51.563Z,4.7
2023-03-07T00:03:51.555Z,4.7
2023-03-07T00:04:51.531Z,4.7
2023-03-07T00:05:51.521Z,4.6
2023-03-07T00:06:51.518Z,4.6
2023-03-07T00:07:51.516Z,4.6
2023-03-07T00:08:51.588Z,4.5
2023-03-07T00:09:51.509Z,4.5
2023-03-07T00:10:51.522Z,4.6
2023-03-07T00:11:51.536Z,4.6
2023-03-07T00:12:51.530Z,4.6
2023-03-07T00:13:51.514Z,4.6
2023-03-07T00:14:51.526Z,4.6
2023-03-07T00:15:51.559Z,4.7
2023-03-07T00:16:51.514Z,4.7
2023-03-07T00:17:51.536Z,4.7
2023-03-07T00:18:51.536Z,4.7
2023-03-07T00:19:51.514Z,4.7
2023-03-07T00:20:51.521Z,4.6
2023-03-07T00:21:51.512Z,4.6
2023-03-07T00:22:51.508Z,4.6
2023-03-07T00:23:51.499Z,4.6
2023-03-07T00:24:51.502Z,4.6
2023-03-07T00:25:51.514Z,4.5
2023-03-07T00:26:51.524Z,4.6
2023-03-07T00:27:51.508Z,4.6
2023-03-07T00:28:51.517Z,4.6
2023-03-07T00:29:51.533Z,4.6
2023-03-07T00:30:51.502Z,4.6
2023-03-07T00:31:51.627Z,4.7
2023-03-07T00:32:51.526Z,4.8
2023-03-07T00:33:51.544Z,4.7
2023-03-07T00:34:51.507Z,4.7
2023-03-07T00:35:51.521Z,4.8
2023-03-07T00:36:51.517Z,4.7
2023-03-07T00:37:51.517Z,4.8
2023-03-07T00:38:51.531Z,4.8
2023-03-07T00:39:51.502Z,4.8
2023-03-07T00:40:51.511Z,4.8
2023-03-07T00:41:51.529Z,4.8
2023-03-07T00:42:51.551Z,4.7
2023-03-07T00:43:51.505Z,4.7
2023-03-07T00:44:51.528Z,4.7
2023-03-07T00:45:51.597Z,4.7
2023-03-07T00:46:51.497Z,4.8
2023-03-07T00:47:51.518Z,4.8
2023-03-07T00:48:51.509Z,4.8
2023-03-07T00:49:51.521Z,4.7
2023-03-07T00:50:51.526Z,4.7
2023-03-07T00:51:51.525Z,4.8
2023-03-07T00:52:51.510Z,4.9
2023-03-07T00:53:51.544Z,4.8
2023-03-07T00:54:51.525Z,4.7
2023-03-07T00:55:51.527Z,4.7
2023-03-07T00:56:51.503Z,4.7
2023-03-07T00:57:51.514Z,4.8
2023-03-07T00:58:51.523Z,4.8
2023-03-07T00:59:51.674Z,4.8
2023-03-07T01:00:51.605Z,4.7
2023-03-07T01:01:51.524Z,4.7
2023-03-07T01:02:51.634Z,4.7
2023-03-07T01:03:51.542Z,4.7
2023-03-07T01:04:51.519Z,4.7
2023-03-07T01:05:51.776Z,4.6
2023-03-07T01:06:51.506Z,4.6
2023-03-07T01:07:51.510Z,4.7
2023-03-07T01:08:51.518Z,4.7
2023-03-07T01:09:51.558Z,4.7
2023-03-07T01:10:51.501Z,4.7
2023-03-07T01:11:51.513Z,4.7
2023-03-07T01:12:51.506Z,4.7
2023-03-07T01:13:51.501Z,4.6
2023-03-07T01:14:51.564Z,4.7
2023-03-07T01:15:51.509Z,4.7
2023-03-07T01:16:51.527Z,4.7
2023-03-07T01:17:51.500Z,4.8
2023-03-07T01:18:51.526Z,4.9
2023-03-07T01:19:51.507Z,4.9
2023-03-07T01:20:51.523Z,4.9
2023-03-07T01:21:51.498Z,5
2023-03-07T01:22:51.512Z,4.9
2023-03-07T01:23:51.517Z,4.9
2023-03-07T01:24:51.504Z,4.8
2023-03-07T01:25:51.491Z,4.8
2023-03-07T01:26:51.555Z,4.8
2023-03-07T01:27:51.506Z,4.8
2023-03-07T01:28:51.525Z,4.8
2023-03-07T01:29:51.509Z,4.8
2023-03-07T01:30:51.503Z,4.8
2023-03-07T01:31:51.581Z,4.9
2023-03-07T01:32:51.497Z,4.9
2023-03-07T01:33:51.623Z,4.9
2023-03-07T01:34:51.505Z,4.9
2023-03-07T01:35:51.625Z,4.9
2023-03-07T01:36:51.567Z,4.9
2023-03-07T01:37:51.498Z,4.9
2023-03-07T01:38:51.516Z,5
2023-03-07T01:39:51.536Z,4.9
2023-03-07T01:40:51.552Z,4.9
2023-03-07T01:41:51.525Z,4.8
2023-03-07T01:42:51.561Z,4.9
2023-03-07T01:44:51.663Z,4.9
2023-03-07T01:45:51.549Z,4.9
2023-03-07T01:46:51.511Z,4.9
2023-03-07T01:48:51.490Z,4.8
2023-03-07T01:49:51.538Z,4.9
2023-03-07T01:50:51.546Z,4.9
2023-03-07T01:51:51.494Z,4.8
2023-03-07T01:52:51.519Z,4.8
2023-03-07T01:53:51.498Z,4.8
2023-03-07T01:54:51.488Z,4.9
2023-03-07T01:55:51.506Z,4.9
2023-03-07T01:56:51.482Z,4.9
2023-03-07T01:57:51.504Z,4.9
2023-03-07T01:58:51.478Z,4.9
2023-03-07T01:59:51.500Z,4.9
2023-03-07T02:00:51.520Z,5
2023-03-07T02:01:51.490Z,5
2023-03-07T02:02:51.512Z,5
2023-03-07T02:03:51.524Z,4.9
2023-03-07T02:04:51.645Z,5
2023-03-07T02:05:51.490Z,4.9
2023-03-07T02:06:51.480Z,4.9
2023-03-07T02:07:51.502Z,4.9
2023-03-07T02:08:51.492Z,4.9
2023-03-07T02:09:51.501Z,5
2023-03-07T02:10:51.497Z,4.9
2023-03-07T02:11:51.485Z,5
2023-03-07T02:12:51.493Z,5
2023-03-07T02:13:51.482Z,5
2023-03-07T02:14:51.500Z,5
2023-03-07T02:15:51.591Z,4.9
2023-03-07T02:16:51.484Z,5
2023-03-07T02:17:51.502Z,5
2023-03-07T02:18:51.533Z,5.1
2023-03-07T02:19:51.545Z,5
2023-03-07T02:20:51.485Z,5
2023-03-07T02:21:51.481Z,5.1
2023-03-07T02:22:51.493Z,5
2023-03-07T02:23:51.475Z,5.1
2023-03-07T02:24:51.557Z,5
2023-03-07T02:25:51.487Z,5.1
2023-03-07T02:26:51.559Z,5.1
2023-03-07T02:27:51.504Z,5
2023-03-07T02:28:51.564Z,5
2023-03-07T02:29:51.520Z,5.1
2023-03-07T02:30:51.517Z,5.1
2023-03-07T02:31:51.565Z,5
2023-03-07T02:32:51.497Z,5
2023-03-07T02:33:51.496Z,5
2023-03-07T02:34:51.482Z,5
2023-03-07T02:35:51.571Z,5
2023-03-07T02:36:51.498Z,5
2023-03-07T02:37:51.505Z,5
2023-03-07T02:38:51.492Z,5
2023-03-07T02:39:51.536Z,5
2023-03-07T02:40:51.491Z,5
2023-03-07T02:41:51.488Z,5.1
2023-03-07T02:42:51.483Z,5.1
2023-03-07T02:43:51.502Z,5.1
2023-03-07T02:44:51.499Z,5.1
2023-03-07T02:45:51.519Z,5.2
2023-03-07T02:46:51.486Z,5.1
2023-03-07T02:47:51.505Z,5.1
2023-03-07T02:48:51.568Z,5.1
2023-03-07T02:49:51.483Z,5.1
2023-03-07T02:51:51.500Z,5
2023-03-07T02:52:51.496Z,5
2023-03-07T02:53:51.476Z,5
2023-03-07T02:54:51.489Z,5
2023-03-07T02:55:51.524Z,5
2023-03-07T02:56:51.487Z,5.1
2023-03-07T02:57:51.482Z,5
2023-03-07T02:58:51.482Z,5
2023-03-07T02:59:51.478Z,5
2023-03-07T03:00:51.493Z,5
2023-03-07T03:01:51.674Z,5
2023-03-07T03:02:51.507Z,5.1
2023-03-07T03:03:51.480Z,5
2023-03-07T03:04:51.536Z,5.2
2023-03-07T03:05:51.494Z,5.2
2023-03-07T03:06:51.550Z,5.2
2023-03-07T03:07:51.520Z,5.2
2023-03-07T03:08:51.554Z,5.2
2023-03-07T03:09:51.496Z,5.2
2023-03-07T03:10:51.506Z,5.2
2023-03-07T03:11:51.494Z,5.2
2023-03-07T03:12:51.504Z,5.2
2023-03-07T03:13:51.482Z,5.2
2023-03-07T03:14:51.485Z,5.2
2023-03-07T03:15:51.600Z,5.2
2023-03-07T03:16:51.487Z,5.2
2023-03-07T03:17:51.534Z,5.1
2023-03-07T03:18:51.490Z,5.1
2023-03-07T03:19:51.493Z,5.2
2023-03-07T03:20:51.548Z,5.1
2023-03-07T03:21:51.507Z,5.1
2023-03-07T03:22:51.507Z,5.1
2023-03-07T03:23:51.509Z,5.1
2023-03-07T03:24:51.499Z,5.1
2023-03-07T03:25:51.496Z,5.2
2023-03-07T03:26:53.196Z,5.1
2023-03-07T03:27:51.581Z,5.1
2023-03-07T03:28:51.495Z,5.2
2023-03-07T03:29:51.498Z,5.2
2023-03-07T03:30:51.495Z,5.2
2023-03-07T03:31:51.495Z,5.3
2023-03-07T03:32:51.503Z,5.3
2023-03-07T03:33:51.493Z,5.3
2023-03-07T03:34:51.503Z,5.3
2023-03-07T03:35:51.572Z,5.2
2023-03-07T03:36:51.489Z,5.2
2023-03-07T03:37:51.689Z,5.2
2023-03-07T03:38:51.478Z,5.2
2023-03-07T03:39:51.511Z,5.1
2023-03-07T03:40:51.483Z,5.1
2023-03-07T03:41:51.517Z,5.1
2023-03-07T03:42:51.509Z,5.2
2023-03-07T03:43:51.510Z,5.2
2023-03-07T03:44:51.488Z,5.1
2023-03-07T03:45:51.481Z,5.2
2023-03-07T03:46:51.550Z,5.2
2023-03-07T03:47:51.512Z,5.3
2023-03-07T03:48:51.488Z,5.3
2023-03-07T03:49:51.499Z,5.4
2023-03-07T03:50:51.492Z,5.3
2023-03-07T03:51:51.805Z,5.3
2023-03-07T03:52:51.520Z,5.3
2023-03-07T03:53:51.495Z,5.3
2023-03-07T03:54:51.500Z,5.3
2023-03-07T03:55:51.494Z,5.3
2023-03-07T03:56:51.518Z,5.3
2023-03-07T03:57:51.508Z,5.3
2023-03-07T03:58:51.500Z,5.3
2023-03-07T03:59:51.508Z,5.2
2023-03-07T04:00:51.480Z,5.3
2023-03-07T04:01:51.685Z,5.2
2023-03-07T04:02:51.604Z,5.2
2023-03-07T04:03:51.485Z,5.2
2023-03-07T04:04:51.481Z,5.2
2023-03-07T04:05:51.489Z,5.1
2023-03-07T04:06:51.482Z,5.1
2023-03-07T04:07:52.414Z,5.1
2023-03-07T04:08:51.521Z,5.1
2023-03-07T04:09:51.476Z,5.2
2023-03-07T04:10:51.540Z,5.2
2023-03-07T04:11:51.487Z,5.2
2023-03-07T04:12:51.507Z,5.2
2023-03-07T04:13:51.508Z,5.2
2023-03-07T04:15:51.503Z,5.3
2023-03-07T04:16:51.496Z,5.3
2023-03-07T04:17:51.504Z,5.3
2023-03-07T04:18:51.494Z,5.3
2023-03-07T04:19:51.474Z,5.4
2023-03-07T04:20:51.485Z,5.4
2023-03-07T04:21:51.484Z,5.4
2023-03-07T04:22:51.491Z,5.3
2023-03-07T04:23:51.492Z,5.3
2023-03-07T04:24:51.491Z,5.2
2023-03-07T04:25:51.525Z,5.3
2023-03-07T04:26:58.164Z,5.3
2023-03-07T04:27:51.487Z,5.3
2023-03-07T04:28:51.490Z,5.4
2023-03-07T04:29:51.491Z,5.3
2023-03-07T04:30:51.492Z,5.3
2023-03-07T04:31:51.520Z,5.2
2023-03-07T04:32:51.508Z,5.3
2023-03-07T04:33:51.490Z,5.2
2023-03-07T04:34:51.517Z,5.2
2023-03-07T04:35:51.547Z,5.2
2023-03-07T04:36:51.475Z,5.2
2023-03-07T04:37:51.491Z,5.2
2023-03-07T04:38:51.489Z,5.2
2023-03-07T04:39:51.557Z,5.3
2023-03-07T04:40:51.468Z,5.2
2023-03-07T04:41:51.518Z,5.2
2023-03-07T04:42:51.518Z,5.2
2023-03-07T04:43:51.488Z,5.2
2023-03-07T04:44:51.489Z,5.2
2023-03-07T04:45:51.516Z,5.2
2023-03-07T04:46:51.497Z,5.2
2023-03-07T04:47:51.505Z,5.3
2023-03-07T04:48:51.478Z,5.3
2023-03-07T04:49:51.495Z,5.2
2023-03-07T04:50:51.493Z,5.3
2023-03-07T04:51:51.495Z,5.2
2023-03-07T04:52:51.488Z,5.3
2023-03-07T04:53:51.484Z,5.2
2023-03-07T04:54:51.495Z,5.2
2023-03-07T04:55:51.481Z,5.2
2023-03-07T04:57:51.493Z,5.3
2023-03-07T04:58:51.482Z,5.3
2023-03-07T04:59:51.491Z,5.4
2023-03-07T05:00:51.488Z,5.3
2023-03-07T05:01:51.482Z,5.4
2023-03-07T05:02:51.517Z,5.3
2023-03-07T05:03:51.499Z,5.3
2023-03-07T05:04:51.484Z,5.4
2023-03-07T05:05:51.484Z,5.5
2023-03-07T05:06:51.477Z,5.4
2023-03-07T05:07:51.565Z,5.4
2023-03-07T05:08:51.515Z,5.4
2023-03-07T05:09:51.478Z,5.5
2023-03-07T05:10:51.513Z,5.5
2023-03-07T05:11:53.593Z,5.4
2023-03-07T05:12:51.497Z,5.4
2023-03-07T05:13:51.495Z,5.3
2023-03-07T05:14:51.475Z,5.4
2023-03-07T05:15:51.594Z,5.3
2023-03-07T05:16:51.479Z,5.4
2023-03-07T05:17:51.481Z,5.4
2023-03-07T05:18:51.497Z,5.4
2023-03-07T05:19:51.486Z,5.4
2023-03-07T05:20:51.677Z,5.5
2023-03-07T05:21:51.486Z,5.5
2023-03-07T05:22:51.494Z,5.5
2023-03-07T05:23:51.478Z,5.5
2023-03-07T05:24:51.540Z,5.4
2023-03-07T05:25:51.466Z,5.4
2023-03-07T05:26:45.666Z,5.4
2023-03-07T05:27:51.507Z,5.4
2023-03-07T05:28:51.474Z,5.4
2023-03-07T05:29:51.481Z,5.3
2023-03-07T05:30:51.515Z,5.4
2023-03-07T05:31:51.495Z,5.4
2023-03-07T05:32:51.521Z,5.4
2023-03-07T05:33:51.475Z,5.5
2023-03-07T05:34:51.473Z,5.5
2023-03-07T05:35:51.524Z,5.5
2023-03-07T05:36:51.474Z,5.4
2023-03-07T05:37:51.490Z,5.4
2023-03-07T05:38:51.482Z,5.4
2023-03-07T05:39:51.512Z,5.5
2023-03-07T05:40:51.472Z,5.5
2023-03-07T05:41:51.553Z,5.5
2023-03-07T05:42:51.475Z,5.4
2023-03-07T05:43:51.493Z,5.5
2023-03-07T05:44:51.477Z,5.5
2023-03-07T05:45:51.518Z,5.6
2023-03-07T05:46:51.522Z,5.5
2023-03-07T05:47:51.489Z,5.4
2023-03-07T05:48:51.478Z,5.4
2023-03-07T05:49:51.481Z,5.3
2023-03-07T05:50:51.485Z,5.3
2023-03-07T05:51:51.476Z,5.3
2023-03-07T05:52:51.506Z,5.5
2023-03-07T05:53:51.479Z,5.5
2023-03-07T05:54:51.539Z,5.4
2023-03-07T05:55:51.465Z,5.4
2023-03-07T05:56:51.470Z,5.3
2023-03-07T05:57:51.506Z,5.5
2023-03-07T05:58:51.474Z,5.4
2023-03-07T05:59:51.550Z,5.3
2023-03-07T06:00:51.486Z,5.4
2023-03-07T06:01:51.477Z,5.4
2023-03-07T06:02:51.503Z,5.4
2023-03-07T06:03:51.527Z,5.3
2023-03-07T06:04:51.478Z,5.4
2023-03-07T06:05:51.531Z,5.4
2023-03-07T06:06:51.473Z,5.4
2023-03-07T06:07:51.493Z,5.4
2023-03-07T06:08:51.480Z,5.4
2023-03-07T06:09:51.481Z,5.3
2023-03-07T06:10:51.477Z,5.3
2023-03-07T06:11:51.482Z,5.3
2023-03-07T06:12:51.564Z,5.3
2023-03-07T06:13:51.465Z,5.3
2023-03-07T06:14:51.464Z,5.3
2023-03-07T06:15:51.563Z,5.2
2023-03-07T06:16:51.472Z,5.4
2023-03-07T06:17:51.483Z,5.3
2023-03-07T06:18:51.481Z,5.3
2023-03-07T06:19:51.515Z,5.3
2023-03-07T06:20:51.475Z,5.4
2023-03-07T06:21:51.476Z,5.5
2023-03-07T06:22:51.494Z,5.4
2023-03-07T06:23:51.557Z,5.4
2023-03-07T06:24:51.474Z,5.4
2023-03-07T06:25:51.475Z,5.5
2023-03-07T06:26:51.476Z,5.5
2023-03-07T06:27:51.494Z,5.5
2023-03-07T06:28:51.540Z,5.6
2023-03-07T06:29:51.471Z,5.5
2023-03-07T06:30:51.497Z,5.6
2023-03-07T06:31:51.475Z,5.6
2023-03-07T06:32:51.482Z,5.6
2023-03-07T06:33:51.511Z,5.5
2023-03-07T06:34:51.472Z,5.5
2023-03-07T06:35:51.589Z,5.5
2023-03-07T06:36:51.493Z,5.5
2023-03-07T06:37:51.483Z,5.5
2023-03-07T06:38:51.470Z,5.5
2023-03-07T06:39:51.476Z,5.5
2023-03-07T06:40:51.474Z,5.5
2023-03-07T06:41:51.467Z,5.5
2023-03-07T06:42:51.487Z,5.5
2023-03-07T06:43:51.495Z,5.5
2023-03-07T06:44:51.483Z,5.6
2023-03-07T06:45:51.528Z,5.6
2023-03-07T06:46:51.480Z,5.6
2023-03-07T06:47:51.492Z,5.7
2023-03-07T06:48:51.487Z,5.6
2023-03-07T06:49:51.470Z,5.7
2023-03-07T06:50:51.470Z,5.7
2023-03-07T06:51:51.478Z,5.7
2023-03-07T06:52:51.491Z,5.7
2023-03-07T06:53:51.485Z,5.8
2023-03-07T06:54:51.463Z,5.8
2023-03-07T06:55:51.486Z,5.9
2023-03-07T06:56:51.487Z,5.8
2023-03-07T06:57:51.485Z,5.7
2023-03-07T06:58:51.486Z,5.8
2023-03-07T06:59:51.468Z,5.8
2023-03-07T07:00:51.471Z,5.8
2023-03-07T07:01:51.660Z,5.8
2023-03-07T07:02:51.664Z,5.8
2023-03-07T07:03:51.476Z,5.7
2023-03-07T07:04:51.457Z,5.8
2023-03-07T07:05:51.516Z,5.9
2023-03-07T07:06:51.463Z,5.9
2023-03-07T07:07:51.511Z,5.9
2023-03-07T07:08:51.464Z,5.8
2023-03-07T07:09:51.484Z,5.9
2023-03-07T07:10:51.551Z,5.9
2023-03-07T07:11:51.479Z,6
2023-03-07T07:12:51.486Z,6
2023-03-07T07:13:51.479Z,5.9
2023-03-07T07:14:51.511Z,5.9
2023-03-07T07:15:51.472Z,6
2023-03-07T07:16:51.508Z,6
2023-03-07T07:17:51.487Z,6
2023-03-07T07:18:51.478Z,6
2023-03-07T07:19:51.483Z,6
2023-03-07T07:20:51.476Z,6.1
2023-03-07T07:21:51.489Z,6.1
2023-03-07T07:22:51.498Z,6.1
2023-03-07T07:23:51.477Z,6.1
2023-03-07T07:24:51.477Z,6.2
2023-03-07T07:25:51.494Z,6.2
2023-03-07T07:26:51.472Z,6.2
2023-03-07T07:27:51.481Z,6.2
2023-03-07T07:28:51.520Z,6.1
2023-03-07T07:29:51.473Z,6
2023-03-07T07:30:51.493Z,6.1
2023-03-07T07:31:51.652Z,6.1
2023-03-07T07:32:51.590Z,6.1
2023-03-07T07:33:51.477Z,6.3
2023-03-07T07:34:51.478Z,6.3
2023-03-07T07:35:51.523Z,6.4
2023-03-07T07:36:51.490Z,6.4
2023-03-07T07:37:51.489Z,6.3
2023-03-07T07:38:51.475Z,6.2
2023-03-07T07:39:51.479Z,6.3
2023-03-07T07:40:51.502Z,6.3
2023-03-07T07:41:51.474Z,6.2
2023-03-07T07:42:51.484Z,6.2
2023-03-07T07:43:51.481Z,6.3
2023-03-07T07:44:51.478Z,6.3
2023-03-07T07:45:51.566Z,6.3
2023-03-07T07:46:51.476Z,6.3
2023-03-07T07:47:51.496Z,6.2
2023-03-07T07:48:51.486Z,6.2
2023-03-07T07:49:51.525Z,6.3
2023-03-07T07:50:51.480Z,6.3
2023-03-07T07:51:51.500Z,6.3
2023-03-07T07:52:51.496Z,6.3
2023-03-07T07:53:51.491Z,6.3
2023-03-07T07:54:51.490Z,6.2
2023-03-07T07:55:51.487Z,6.2
2023-03-07T07:56:51.469Z,6.2
2023-03-07T07:57:51.486Z,6.2
2023-03-07T07:58:51.493Z,6.3
2023-03-07T07:59:51.488Z,6.3
2023-03-07T08:00:51.493Z,6.2
2023-03-07T08:01:51.477Z,6.3
2023-03-07T08:02:51.494Z,6.2
2023-03-07T08:03:51.505Z,6.3
2023-03-07T08:04:51.487Z,6.3
2023-03-07T08:05:51.492Z,6.3
2023-03-07T08:06:51.472Z,6.3
2023-03-07T08:07:51.491Z,6.3
2023-03-07T08:08:51.499Z,6.3
2023-03-07T08:09:51.494Z,6.3
2023-03-07T08:10:51.484Z,6.3
2023-03-07T08:11:51.469Z,6.3
2023-03-07T08:12:51.522Z,6.3
2023-03-07T08:13:51.476Z,6.3
2023-03-07T08:14:51.508Z,6.3
2023-03-07T08:15:51.504Z,6.2
2023-03-07T08:16:51.533Z,6.3
2023-03-07T08:17:51.591Z,6.3
2023-03-07T08:18:51.467Z,6.3
2023-03-07T08:19:51.487Z,6.3
2023-03-07T08:20:51.476Z,6.3
2023-03-07T08:21:51.471Z,6.3
2023-03-07T08:22:51.509Z,6.3
2023-03-07T08:23:51.476Z,6.3
2023-03-07T08:24:51.473Z,6.4
2023-03-07T08:25:51.487Z,6.4
2023-03-07T08:26:51.490Z,6.4
2023-03-07T08:27:51.493Z,6.4
2023-03-07T08:28:51.473Z,6.4
2023-03-07T08:29:51.489Z,6.4
2023-03-07T08:30:51.548Z,6.3
2023-03-07T08:31:51.544Z,6.4
2023-03-07T08:32:51.518Z,6.4
2023-03-07T08:33:51.510Z,6.4
2023-03-07T08:34:51.495Z,6.4
2023-03-07T08:35:51.506Z,6.4
2023-03-07T08:36:51.512Z,6.4
2023-03-07T08:37:51.503Z,6.4
2023-03-07T08:38:51.641Z,6.5
2023-03-07T08:39:51.480Z,6.5
2023-03-07T08:40:51.487Z,6.5
2023-03-07T08:41:51.464Z,6.5
2023-03-07T08:42:51.573Z,6.6
2023-03-07T08:43:51.477Z,6.5
2023-03-07T08:44:51.496Z,6.6
2023-03-07T08:45:51.489Z,6.5
2023-03-07T08:46:51.485Z,6.6
2023-03-07T08:47:51.524Z,6.6
2023-03-07T08:48:51.481Z,6.8
2023-03-07T08:49:51.478Z,7
2023-03-07T08:50:52.683Z,6.9
2023-03-07T08:51:51.478Z,7.1
2023-03-07T08:52:51.492Z,7.2
2023-03-07T08:53:51.477Z,7.2
2023-03-07T08:54:51.473Z,7.3
2023-03-07T08:55:51.458Z,7.3
2023-03-07T08:56:51.471Z,7.2
2023-03-07T08:57:51.469Z,7.1
2023-03-07T08:58:51.485Z,7.1
2023-03-07T08:59:51.471Z,7.2
2023-03-07T09:00:51.465Z,7.3
2023-03-07T09:01:51.507Z,7.2
2023-03-07T09:02:51.472Z,7.3
2023-03-07T09:03:51.467Z,7.4
2023-03-07T09:04:51.527Z,7.4
2023-03-07T09:05:51.477Z,7.4
2023-03-07T09:06:51.473Z,7.3
2023-03-07T09:07:51.482Z,7.4
2023-03-07T09:08:51.501Z,7.3
2023-03-07T09:09:51.464Z,7.3
2023-03-07T09:10:51.497Z,7.3
2023-03-07T09:11:51.489Z,7.3
2023-03-07T09:12:51.490Z,7.3
2023-03-07T09:13:53.222Z,7.2
2023-03-07T09:14:51.463Z,7.2
2023-03-07T09:15:51.518Z,7.3
2023-03-07T09:16:51.475Z,7.5
2023-03-07T09:17:51.485Z,7.5
2023-03-07T09:18:51.536Z,7.5
2023-03-07T09:19:51.469Z,7.5
2023-03-07T09:20:51.491Z,7.5
2023-03-07T09:21:51.483Z,7.5
2023-03-07T09:22:51.501Z,7.6
2023-03-07T09:23:51.483Z,7.6
2023-03-07T09:24:51.483Z,7.6
2023-03-07T09:25:51.521Z,7.6
2023-03-07T09:26:51.469Z,7.6
2023-03-07T09:27:52.040Z,7.7
2023-03-07T09:28:51.472Z,7.8
2023-03-07T09:29:51.463Z,7.8
2023-03-07T09:30:51.523Z,7.8
2023-03-07T09:31:51.509Z,7.7
2023-03-07T09:32:51.490Z,7.8
2023-03-07T09:33:51.499Z,7.7
2023-03-07T09:34:51.496Z,7.8
2023-03-07T09:35:51.544Z,7.9
2023-03-07T09:36:51.473Z,7.9
2023-03-07T09:37:51.490Z,8
2023-03-07T09:38:51.486Z,7.9
2023-03-07T09:39:51.483Z,8
2023-03-07T09:40:51.468Z,7.9
2023-03-07T09:41:51.482Z,7.9
2023-03-07T09:42:51.506Z,8
2023-03-07T09:43:51.491Z,8
2023-03-07T09:44:51.478Z,8
2023-03-07T09:45:51.499Z,8
2023-03-07T09:46:51.491Z,7.9
2023-03-07T09:47:51.504Z,7.8
2023-03-07T09:48:51.533Z,7.8
2023-03-07T09:49:51.513Z,7.7
2023-03-07T09:50:51.473Z,7.7
2023-03-07T09:51:51.470Z,7.6
2023-03-07T09:52:51.491Z,7.6
2023-03-07T09:53:51.514Z,7.6
2023-03-07T09:54:51.483Z,7.6
2023-03-07T09:55:51.492Z,7.6
2023-03-07T09:57:51.599Z,7.5
2023-03-07T09:58:51.514Z,7.4
2023-03-07T09:59:53.749Z,7.2
2023-03-07T10:00:51.483Z,7.2
2023-03-07T10:01:51.478Z,7.3
2023-03-07T10:02:51.528Z,7.3
2023-03-07T10:03:51.611Z,7.3
2023-03-07T10:04:51.497Z,7.3
2023-03-07T10:05:51.500Z,7.5
2023-03-07T10:06:51.468Z,7.4
2023-03-07T10:07:51.486Z,7.3
2023-03-07T10:08:51.500Z,7.3
2023-03-07T10:09:51.471Z,7.3
2023-03-07T10:10:51.465Z,7.3
2023-03-07T10:11:51.576Z,7.3
2023-03-07T10:12:51.491Z,7.3
2023-03-07T10:13:51.478Z,7.4
2023-03-07T10:14:51.490Z,7.4
2023-03-07T10:15:51.505Z,7.4
2023-03-07T10:16:51.507Z,7.3
2023-03-07T10:17:51.526Z,7.3
2023-03-07T10:18:51.488Z,7.4
2023-03-07T10:19:51.478Z,7.4
2023-03-07T10:20:51.510Z,7.4
2023-03-07T10:21:51.481Z,7.3
2023-03-07T10:22:51.503Z,7.3
2023-03-07T10:23:51.465Z,7.3
2023-03-07T10:24:51.512Z,7.3
2023-03-07T10:25:51.467Z,7.3
2023-03-07T10:26:51.488Z,7.3
2023-03-07T10:27:51.536Z,7.3
2023-03-07T10:28:51.474Z,7.3
2023-03-07T10:29:51.474Z,7.3
2023-03-07T10:30:51.471Z,7.2
2023-03-07T10:31:51.609Z,7.2
2023-03-07T10:32:51.575Z,7.2
2023-03-07T10:33:51.495Z,7.2
2023-03-07T10:34:51.482Z,7.2
2023-03-07T10:35:51.498Z,7.2
2023-03-07T10:36:57.482Z,7.3
2023-03-07T10:37:51.493Z,7.3
2023-03-07T10:38:51.467Z,7.3
2023-03-07T10:39:51.474Z,7.3
2023-03-07T10:40:51.467Z,7.3
2023-03-07T10:41:51.475Z,7.2
2023-03-07T10:42:51.480Z,7.2
2023-03-07T10:43:51.475Z,7.1
2023-03-07T10:44:51.454Z,7.1
2023-03-07T10:45:51.542Z,7.1
2023-03-07T10:46:56.114Z,7
2023-03-07T10:47:51.490Z,6.9
2023-03-07T10:48:51.496Z,7
2023-03-07T10:49:51.528Z,7.1
2023-03-07T10:50:51.479Z,7.1
2023-03-07T10:51:51.511Z,7
2023-03-07T10:52:51.488Z,6.9
2023-03-07T10:53:51.462Z,6.9
2023-03-07T10:54:51.467Z,6.9
2023-03-07T10:55:51.475Z,6.9
2023-03-07T10:56:51.479Z,7
2023-03-07T10:57:51.476Z,7
2023-03-07T10:58:51.466Z,7
2023-03-07T10:59:51.465Z,7
2023-03-07T11:00:51.482Z,7.1
2023-03-07T11:01:51.476Z,7.2
2023-03-07T11:03:54.706Z,7.2
2023-03-07T11:04:51.604Z,7.3
2023-03-07T11:05:51.487Z,7.3
2023-03-07T11:06:51.484Z,7.4
2023-03-07T11:08:51.480Z,7.4
2023-03-07T11:10:01.742Z,7.5
2023-03-07T11:11:01.752Z,7.6
2023-03-07T11:12:01.732Z,7.6
2023-03-07T11:13:01.766Z,7.6
2023-03-07T11:13:51.471Z,7.6
2023-03-07T11:14:51.571Z,7.7
2023-03-07T11:15:57.922Z,7.7
2023-03-07T11:16:51.455Z,7.7
2023-03-07T11:17:51.523Z,7.7
2023-03-07T11:18:51.472Z,7.7
2023-03-07T11:19:51.485Z,7.8
2023-03-07T11:20:51.501Z,7.7
2023-03-07T11:21:51.448Z,7.7
2023-03-07T11:22:51.575Z,7.7
2023-03-07T11:23:51.486Z,7.7
2023-03-07T11:24:51.464Z,7.7
2023-03-07T11:25:51.496Z,7.7
2023-03-07T11:26:51.464Z,7.7
2023-03-07T11:27:51.459Z,7.7
2023-03-07T11:28:51.461Z,7.9
2023-03-07T11:29:51.459Z,7.8
2023-03-07T11:30:51.563Z,7.7
2023-03-07T11:31:51.472Z,7.6
2023-03-07T11:32:51.477Z,7.6
2023-03-07T11:33:59.047Z,7.5
2023-03-07T11:34:51.474Z,7.6
2023-03-07T11:35:51.497Z,7.5
2023-03-07T11:36:51.459Z,7.5
2023-03-07T11:37:51.535Z,7.5
2023-03-07T11:38:51.475Z,7.5
2023-03-07T11:39:51.465Z,7.4
2023-03-07T11:40:51.481Z,7.4
2023-03-07T11:41:51.472Z,7.3
2023-03-07T11:42:51.465Z,7.4
2023-03-07T11:43:51.452Z,7.3
2023-03-07T11:44:51.493Z,7.2
2023-03-07T11:45:51.461Z,7.2
2023-03-07T11:46:51.551Z,7.2
2023-03-07T11:47:52.140Z,7.1
2023-03-07T11:48:51.481Z,7.2
2023-03-07T11:49:51.528Z,7.2
2023-03-07T11:50:51.473Z,7.2
2023-03-07T11:51:51.470Z,7.2
2023-03-07T11:52:51.466Z,7.1
2023-03-07T11:53:51.480Z,7.2
2023-03-07T11:54:51.447Z,7.1
2023-03-07T11:55:51.465Z,7.1
2023-03-07T11:56:51.465Z,7.2
2023-03-07T11:57:51.582Z,7.1
2023-03-07T11:58:51.454Z,7.2
2023-03-07T11:59:51.460Z,7.1
2023-03-07T12:00:51.456Z,7.2
2023-03-07T12:01:51.592Z,7.1
2023-03-07T12:02:51.477Z,7.1
2023-03-07T12:03:51.478Z,7.1
2023-03-07T12:04:51.476Z,7
2023-03-07T12:05:51.514Z,7
2023-03-07T12:06:51.472Z,7
2023-03-07T12:07:51.486Z,6.9
2023-03-07T12:08:51.461Z,6.9
2023-03-07T12:09:51.493Z,7
2023-03-07T12:10:51.472Z,7
2023-03-07T12:11:51.574Z,7
2023-03-07T12:12:51.477Z,7
2023-03-07T12:13:51.467Z,6.9
2023-03-07T12:14:51.497Z,7
2023-03-07T12:15:51.482Z,6.9
2023-03-07T12:16:51.465Z,6.9
2023-03-07T12:17:51.466Z,6.9
2023-03-07T12:18:51.455Z,7
2023-03-07T12:19:51.457Z,7
2023-03-07T12:20:51.520Z,7
2023-03-07T12:21:51.647Z,7
2023-03-07T12:22:51.477Z,7.1
2023-03-07T12:23:51.454Z,7.1
2023-03-07T12:24:51.615Z,7.1
2023-03-07T12:25:51.494Z,7.2
2023-03-07T12:26:51.480Z,7.2
2023-03-07T12:27:51.492Z,7.2
2023-03-07T12:28:51.476Z,7.3
2023-03-07T12:29:51.481Z,7.4
2023-03-07T12:30:51.468Z,7.5
2023-03-07T12:31:51.614Z,7.5
2023-03-07T12:32:51.569Z,7.5
2023-03-07T12:33:51.484Z,7.5
2023-03-07T12:34:51.477Z,7.5
2023-03-07T12:35:51.627Z,7.5
2023-03-07T12:36:51.558Z,7.4
2023-03-07T12:37:51.456Z,7.4
2023-03-07T12:38:51.471Z,7.4
2023-03-07T12:39:51.462Z,7.3
2023-03-07T12:40:51.471Z,7.3
2023-03-07T12:41:51.517Z,7.4
2023-03-07T12:42:51.485Z,7.4
2023-03-07T12:43:51.476Z,7.4
2023-03-07T12:44:51.475Z,7.5
2023-03-07T12:45:51.535Z,7.5
2023-03-07T12:46:51.461Z,7.5
2023-03-07T12:47:58.216Z,7.4
2023-03-07T12:48:51.501Z,7.4
2023-03-07T12:49:51.490Z,7.4
2023-03-07T12:50:51.489Z,7.4
2023-03-07T12:51:51.478Z,7.5
2023-03-07T12:52:51.459Z,7.4
2023-03-07T12:53:51.467Z,7.5
2023-03-07T12:54:51.465Z,7.3
2023-03-07T12:55:51.511Z,7.2
2023-03-07T12:56:51.479Z,7.3
2023-03-07T12:57:51.490Z,7.2
2023-03-07T12:58:51.475Z,7.2
2023-03-07T12:59:51.478Z,7.2
2023-03-07T13:00:51.530Z,7.1
2023-03-07T13:01:51.485Z,7.1
2023-03-07T13:02:51.475Z,7.1
2023-03-07T13:03:51.546Z,7.2
2023-03-07T13:04:51.458Z,7.2
2023-03-07T13:05:51.479Z,7.2
2023-03-07T13:06:51.470Z,7.2
2023-03-07T13:07:51.471Z,7.2
2023-03-07T13:08:51.476Z,7.2
2023-03-07T13:09:51.546Z,7.2
2023-03-07T13:10:51.461Z,7.2
2023-03-07T13:11:51.469Z,7.1
2023-03-07T13:12:51.474Z,7.2
2023-03-07T13:13:51.555Z,7.2
2023-03-07T13:14:51.486Z,7
2023-03-07T13:15:51.479Z,6.8
2023-03-07T13:16:51.492Z,6.7
2023-03-07T13:17:51.471Z,6.4
2023-03-07T13:18:51.462Z,6.3
2023-03-07T13:19:51.447Z,6.2
2023-03-07T13:20:51.470Z,6.1
2023-03-07T13:21:51.480Z,6
2023-03-07T13:22:51.572Z,5.9
2023-03-07T13:23:51.463Z,5.8
2023-03-07T13:24:51.463Z,5.7
2023-03-07T13:25:51.454Z,5.7
2023-03-07T13:26:51.597Z,5.6
2023-03-07T13:27:51.454Z,5.7
2023-03-07T13:28:51.543Z,5.6
2023-03-07T13:29:51.451Z,5.6
2023-03-07T13:30:51.485Z,5.4
2023-03-07T13:31:51.454Z,5.3
2023-03-07T13:32:51.517Z,5.3
2023-03-07T13:33:51.454Z,5.3
2023-03-07T13:34:51.788Z,5.1
2023-03-07T13:35:51.531Z,5.1
2023-03-07T13:36:51.481Z,5.1
2023-03-07T13:37:51.508Z,5.1
2023-03-07T13:38:51.520Z,4.9
2023-03-07T13:39:51.610Z,4.9
2023-03-07T13:40:51.737Z,5
2023-03-07T13:41:51.674Z,5
2023-03-07T13:42:51.759Z,5
2023-03-07T13:43:51.454Z,4.8
2023-03-07T13:44:51.475Z,4.8
2023-03-07T13:45:51.469Z,4.8
2023-03-07T13:46:51.472Z,4.8
2023-03-07T13:47:45.730Z,4.9
2023-03-07T13:48:51.480Z,4.9
2023-03-07T13:49:51.484Z,4.9
2023-03-07T13:50:51.470Z,5
2023-03-07T13:51:51.485Z,4.9
2023-03-07T13:52:51.492Z,4.8
2023-03-07T13:53:51.476Z,4.8
2023-03-07T13:54:51.450Z,4.9
2023-03-07T13:55:51.463Z,4.8
2023-03-07T13:56:51.478Z,4.7
2023-03-07T13:57:51.481Z,4.8
2023-03-07T13:58:51.463Z,4.8
2023-03-07T13:59:51.466Z,4.9